createdAt,value
2022-10-05T00:01:08.679Z,56.74
2022-10-05T00:03:35.049Z,56.94
2022-10-05T00:06:01.417Z,56.87
2022-10-05T00:08:27.787Z,56.96
2022-10-05T00:10:54.145Z,56.99
2022-10-05T00:13:20.511Z,56.77
2022-10-05T00:15:46.922Z,56.93
2022-10-05T00:18:13.297Z,56.95
2022-10-05T00:20:39.664Z,56.98
2022-10-05T00:23:06.022Z,56.92
2022-10-05T00:25:32.383Z,56.72
2022-10-05T00:27:58.783Z,56.87
2022-10-05T00:30:25.173Z,57.04
2022-10-05T00:32:53.880Z,56.97
2022-10-05T00:35:23.725Z,57.13
2022-10-05T00:37:50.096Z,57.10
2022-10-05T00:40:16.478Z,56.96
2022-10-05T00:42:42.861Z,56.93
2022-10-05T00:45:09.262Z,57.19
2022-10-05T00:47:35.627Z,57.23
2022-10-05T00:50:01.993Z,57.31
2022-10-05T00:52:28.366Z,56.96
2022-10-05T00:54:54.738Z,57.10
2022-10-05T00:57:21.093Z,57.30
2022-10-05T00:59:47.463Z,57.02
2022-10-05T01:02:13.881Z,57.28
2022-10-05T01:04:40.324Z,57.17
2022-10-05T01:07:06.706Z,57.20
2022-10-05T01:09:33.059Z,57.32
2022-10-05T01:11:59.437Z,57.15
2022-10-05T01:14:25.806Z,57.20
2022-10-05T01:16:52.251Z,57.35
2022-10-05T01:19:18.630Z,57.10
2022-10-05T01:21:45.004Z,57.10
2022-10-05T01:24:11.361Z,57.13
2022-10-05T01:26:37.726Z,57.17
2022-10-05T01:29:04.092Z,57.05
2022-10-05T01:31:30.470Z,56.95
2022-10-05T01:33:56.863Z,57.08
2022-10-05T01:36:23.227Z,57.07
2022-10-05T01:38:49.603Z,57.08
2022-10-05T01:41:16.078Z,57.03
2022-10-05T01:43:42.441Z,57.06
2022-10-05T01:46:08.845Z,57.14
2022-10-05T01:48:35.255Z,57.11
2022-10-05T01:51:01.630Z,57.14
2022-10-05T01:53:27.998Z,57.10
2022-10-05T01:55:54.366Z,57.13
2022-10-05T01:58:20.745Z,57.21
2022-10-05T02:00:47.138Z,57.14
2022-10-05T02:03:13.543Z,57.27
2022-10-05T02:05:39.896Z,57.06
2022-10-05T02:08:06.259Z,57.22
2022-10-05T02:10:32.620Z,57.11
2022-10-05T02:12:58.975Z,56.97
2022-10-05T02:15:25.336Z,56.99
2022-10-05T02:17:51.691Z,57.13
2022-10-05T02:20:18.060Z,57.21
2022-10-05T02:22:44.416Z,57.06
2022-10-05T02:25:10.785Z,57.15
2022-10-05T02:27:37.149Z,57.30
2022-10-05T02:30:03.519Z,57.15
2022-10-05T02:32:29.891Z,57.11
2022-10-05T02:34:56.277Z,56.93
2022-10-05T02:37:22.642Z,57.02
2022-10-05T02:39:49.026Z,57.05
2022-10-05T02:42:15.380Z,57.11
2022-10-05T02:44:41.741Z,57.13
2022-10-05T02:47:08.106Z,57.21
2022-10-05T02:49:34.476Z,57.14
2022-10-05T02:52:00.849Z,57.24
2022-10-05T02:54:27.231Z,57.34
2022-10-05T02:56:53.589Z,57.17
2022-10-05T02:59:19.954Z,57.03
2022-10-05T03:01:46.381Z,57.21
2022-10-05T03:04:12.758Z,57.11
2022-10-05T03:06:39.126Z,57.01
2022-10-05T03:09:05.506Z,57.10
2022-10-05T03:11:31.887Z,57.21
2022-10-05T03:13:58.250Z,57.12
2022-10-05T03:16:24.705Z,57.08
2022-10-05T03:18:51.106Z,57.16
2022-10-05T03:21:17.464Z,57.23
2022-10-05T03:23:43.832Z,56.99
2022-10-05T03:26:10.210Z,57.16
2022-10-05T03:28:36.664Z,57.14
2022-10-05T03:31:03.102Z,57.27
2022-10-05T03:33:29.511Z,57.09
2022-10-05T03:35:55.873Z,57.11
2022-10-05T03:38:22.232Z,57.08
2022-10-05T03:40:48.605Z,56.94
2022-10-05T03:43:14.964Z,57.24
2022-10-05T03:45:41.326Z,57.20
2022-10-05T03:48:07.683Z,57.19
2022-10-05T03:50:34.049Z,57.02
2022-10-05T03:53:00.400Z,56.86
2022-10-05T03:55:26.761Z,57.01
2022-10-05T03:57:53.121Z,56.95
2022-10-05T04:00:19.485Z,57.00
2022-10-05T04:02:45.885Z,57.16
2022-10-05T04:05:12.276Z,57.22
2022-10-05T04:07:38.645Z,57.18
2022-10-05T04:10:05.010Z,57.20
2022-10-05T04:12:31.460Z,57.03
2022-10-05T04:14:57.827Z,57.14
2022-10-05T04:17:24.189Z,57.16
2022-10-05T04:19:50.566Z,57.12
2022-10-05T04:22:16.932Z,57.20
2022-10-05T04:24:43.303Z,57.39
2022-10-05T04:27:09.656Z,57.45
2022-10-05T04:29:36.033Z,57.21
2022-10-05T04:32:02.389Z,57.14
2022-10-05T04:34:28.791Z,57.08
2022-10-05T04:36:55.159Z,57.34
2022-10-05T04:39:21.519Z,57.74
2022-10-05T04:41:47.890Z,57.46
2022-10-05T04:44:14.265Z,57.39
2022-10-05T04:46:40.656Z,57.46
2022-10-05T04:49:07.050Z,57.09
2022-10-05T04:51:33.422Z,57.27
2022-10-05T04:53:59.771Z,57.32
2022-10-05T04:56:26.146Z,57.40
2022-10-05T04:58:52.516Z,57.40
2022-10-05T05:01:18.940Z,57.20
2022-10-05T05:03:45.425Z,57.12
2022-10-05T05:06:17.388Z,57.50
2022-10-05T05:08:44.492Z,57.43
2022-10-05T05:11:15.803Z,57.44
2022-10-05T05:13:43.174Z,57.46
2022-10-05T05:16:09.591Z,57.35
2022-10-05T05:18:36.013Z,57.29
2022-10-05T05:21:02.390Z,57.42
2022-10-05T05:23:28.752Z,57.61
2022-10-05T05:25:55.192Z,57.53
2022-10-05T05:28:21.648Z,57.56
2022-10-05T05:30:48.129Z,57.52
2022-10-05T05:33:14.483Z,57.49
2022-10-05T05:35:40.865Z,57.57
2022-10-05T05:38:07.238Z,57.42
2022-10-05T05:40:33.593Z,57.58
2022-10-05T05:42:59.956Z,57.65
2022-10-05T05:45:26.305Z,57.54
2022-10-05T05:47:52.736Z,57.59
2022-10-05T05:50:19.144Z,57.60
2022-10-05T05:52:45.526Z,57.58
2022-10-05T05:55:11.893Z,57.41
2022-10-05T05:57:38.270Z,57.49
2022-10-05T06:00:04.628Z,57.65
2022-10-05T06:02:31.138Z,57.30
2022-10-05T06:04:57.638Z,57.35
2022-10-05T06:07:29.456Z,56.99
2022-10-05T06:09:56.844Z,57.12
2022-10-05T06:12:23.215Z,57.00
2022-10-05T06:14:49.576Z,57.13
2022-10-05T06:17:15.942Z,57.24
2022-10-05T06:19:42.300Z,57.13
2022-10-05T06:22:08.656Z,57.26
2022-10-05T06:24:35.029Z,57.15
2022-10-05T06:27:01.409Z,57.24
2022-10-05T06:29:27.794Z,57.15
2022-10-05T06:31:58.575Z,57.32
2022-10-05T06:34:25.339Z,57.34
2022-10-05T06:36:51.735Z,57.21
2022-10-05T06:39:18.103Z,57.31
2022-10-05T06:41:44.474Z,57.31
2022-10-05T06:44:10.824Z,57.27
2022-10-05T06:46:37.188Z,57.29
2022-10-05T06:49:03.577Z,57.28
2022-10-05T06:51:29.942Z,57.30
2022-10-05T06:53:56.307Z,57.29
2022-10-05T06:56:22.690Z,57.31
2022-10-05T06:58:49.062Z,57.49
2022-10-05T07:01:15.506Z,57.49
2022-10-05T07:03:41.942Z,57.29
2022-10-05T07:06:08.314Z,57.50
2022-10-05T07:08:34.686Z,57.42
2022-10-05T07:11:01.045Z,57.35
2022-10-05T07:13:27.412Z,57.53
2022-10-05T07:15:53.766Z,57.36
2022-10-05T07:18:20.136Z,57.42
2022-10-05T07:20:49.205Z,57.46
2022-10-05T07:23:15.808Z,57.39
2022-10-05T07:25:42.187Z,57.42
2022-10-05T07:28:08.632Z,57.33
2022-10-05T07:30:35.120Z,57.50
2022-10-05T07:33:01.652Z,57.34
2022-10-05T07:35:28.025Z,57.36
2022-10-05T07:37:54.418Z,57.48
2022-10-05T07:40:20.798Z,57.32
2022-10-05T07:42:51.768Z,57.28
2022-10-05T07:45:18.545Z,57.30
2022-10-05T07:47:44.911Z,57.21
2022-10-05T07:50:11.282Z,57.10
2022-10-05T07:52:37.640Z,57.18
2022-10-05T07:55:04.006Z,57.13
2022-10-05T07:57:30.369Z,56.98
2022-10-05T07:59:56.739Z,56.89
2022-10-05T08:02:23.254Z,56.89
2022-10-05T08:04:49.674Z,56.93
2022-10-05T08:07:16.102Z,56.96
2022-10-05T08:09:42.503Z,56.84
2022-10-05T08:12:08.870Z,57.18
2022-10-05T08:14:35.294Z,57.06
2022-10-05T08:17:01.648Z,56.93
2022-10-05T08:19:28.005Z,57.09
2022-10-05T08:21:54.380Z,57.00
2022-10-05T08:24:20.841Z,56.92
2022-10-05T08:26:47.205Z,57.05
2022-10-05T08:29:14.019Z,56.90
2022-10-05T08:31:40.635Z,56.93
2022-10-05T08:34:07.016Z,56.85
2022-10-05T08:36:33.401Z,56.95
2022-10-05T08:38:59.760Z,56.88
2022-10-05T08:41:26.130Z,56.95
2022-10-05T08:43:52.504Z,57.04
2022-10-05T08:46:18.926Z,56.98
2022-10-05T08:48:45.386Z,56.97
2022-10-05T08:51:11.771Z,57.10
2022-10-05T08:53:38.142Z,56.85
2022-10-05T08:56:04.516Z,56.90
2022-10-05T08:58:30.891Z,56.61
2022-10-05T09:00:57.262Z,56.40
2022-10-05T09:03:23.627Z,56.66
2022-10-05T09:05:49.997Z,56.56
2022-10-05T09:08:16.373Z,56.59
2022-10-05T09:10:42.740Z,56.73
2022-10-05T09:13:09.109Z,56.87
2022-10-05T09:15:35.544Z,56.78
2022-10-05T09:18:01.942Z,56.65
2022-10-05T09:20:28.323Z,56.92
2022-10-05T09:22:54.687Z,56.70
2022-10-05T09:25:21.359Z,56.83
2022-10-05T09:27:47.736Z,56.85
2022-10-05T09:30:14.204Z,56.81
2022-10-05T09:32:40.575Z,56.90
2022-10-05T09:35:06.953Z,56.93
2022-10-05T09:37:33.323Z,57.00
2022-10-05T09:40:01.526Z,56.84
2022-10-05T09:42:28.140Z,57.10
2022-10-05T09:44:54.510Z,57.03
2022-10-05T09:47:20.911Z,56.84
2022-10-05T09:49:47.276Z,56.92
2022-10-05T09:52:18.670Z,56.81
2022-10-05T09:54:45.417Z,56.62
2022-10-05T09:57:11.802Z,56.86
2022-10-05T09:59:38.169Z,56.78
2022-10-05T10:02:04.606Z,56.62
2022-10-05T10:04:31.065Z,56.46
2022-10-05T10:06:57.442Z,56.24
2022-10-05T10:09:23.815Z,56.61
2022-10-05T10:11:50.351Z,56.53
2022-10-05T10:14:16.828Z,56.45
2022-10-05T10:16:43.196Z,56.61
2022-10-05T10:19:09.562Z,56.37
2022-10-05T10:21:35.928Z,56.63
2022-10-05T10:24:02.309Z,56.74
2022-10-05T10:26:28.696Z,56.61
2022-10-05T10:28:55.066Z,56.61
2022-10-05T10:31:21.493Z,56.45
2022-10-05T10:33:47.898Z,56.76
2022-10-05T10:36:14.268Z,56.67
2022-10-05T10:38:40.628Z,56.59
2022-10-05T10:41:07.007Z,56.58
2022-10-05T10:43:33.376Z,56.62
2022-10-05T10:45:59.797Z,56.48
2022-10-05T10:48:26.218Z,56.60
2022-10-05T10:50:52.585Z,56.60
2022-10-05T10:53:18.948Z,56.50
2022-10-05T10:55:45.321Z,56.46
2022-10-05T10:58:15.880Z,56.48
2022-10-05T11:00:42.756Z,56.42
2022-10-05T11:03:09.152Z,56.38
2022-10-05T11:05:35.586Z,56.33
2022-10-05T11:08:01.974Z,56.47
2022-10-05T11:10:28.362Z,56.42
2022-10-05T11:12:54.723Z,56.21
2022-10-05T11:15:21.094Z,56.57
2022-10-05T11:17:47.467Z,56.31
2022-10-05T11:20:13.838Z,56.20
2022-10-05T11:22:40.226Z,56.24
2022-10-05T11:25:06.586Z,56.27
2022-10-05T11:27:32.945Z,56.76
2022-10-05T11:29:59.330Z,58.45
2022-10-05T11:32:25.742Z,60.41
2022-10-05T11:34:52.123Z,61.02
2022-10-05T11:37:18.490Z,61.99
2022-10-05T11:39:44.870Z,61.90
2022-10-05T11:42:11.247Z,60.92
2022-10-05T11:44:37.627Z,60.80
2022-10-05T11:47:04.008Z,60.61
2022-10-05T11:49:30.376Z,60.37
2022-10-05T11:51:56.769Z,60.04
2022-10-05T11:54:23.133Z,59.99
2022-10-05T11:56:52.302Z,59.67
2022-10-05T11:59:21.017Z,59.63
2022-10-05T12:01:47.397Z,59.52
2022-10-05T12:04:13.824Z,59.54
2022-10-05T12:06:40.244Z,59.45
2022-10-05T12:09:06.631Z,59.35
2022-10-05T12:11:33.006Z,59.32
2022-10-05T12:13:59.374Z,59.25
2022-10-05T12:16:25.884Z,59.20
2022-10-05T12:18:52.302Z,58.74
2022-10-05T12:21:18.696Z,58.58
2022-10-05T12:23:45.067Z,58.58
2022-10-05T12:26:11.445Z,58.60
2022-10-05T12:28:37.811Z,58.57
2022-10-05T12:31:04.214Z,58.33
2022-10-05T12:33:30.614Z,58.13
2022-10-05T12:35:57.028Z,58.17
2022-10-05T12:38:23.407Z,58.30
2022-10-05T12:40:49.779Z,57.94
2022-10-05T12:43:16.165Z,58.11
2022-10-05T12:45:42.562Z,57.87
2022-10-05T12:48:08.986Z,57.96
2022-10-05T12:50:35.366Z,57.70
2022-10-05T12:53:01.738Z,57.62
2022-10-05T12:55:28.119Z,57.74
2022-10-05T12:57:54.495Z,57.72
2022-10-05T13:00:23.148Z,57.52
2022-10-05T13:02:49.854Z,57.27
2022-10-05T13:05:16.219Z,57.47
2022-10-05T13:07:42.594Z,57.57
2022-10-05T13:10:08.978Z,57.41
2022-10-05T13:12:35.351Z,57.20
2022-10-05T13:15:01.711Z,57.31
2022-10-05T13:17:28.093Z,57.36
2022-10-05T13:19:54.477Z,57.32
2022-10-05T13:22:20.856Z,57.09
2022-10-05T13:24:47.221Z,57.04
2022-10-05T13:27:13.591Z,56.94
2022-10-05T13:29:39.985Z,56.88
2022-10-05T13:32:06.354Z,56.76
2022-10-05T13:34:32.724Z,56.94
2022-10-05T13:36:59.103Z,57.07
2022-10-05T13:39:25.468Z,57.07
2022-10-05T13:41:51.844Z,56.83
2022-10-05T13:44:18.212Z,56.86
2022-10-05T13:46:44.587Z,56.96
2022-10-05T13:49:13.698Z,56.71
2022-10-05T13:51:40.068Z,56.69
2022-10-05T13:54:06.434Z,56.80
2022-10-05T13:56:32.800Z,56.70
2022-10-05T13:58:59.183Z,56.85
2022-10-05T14:01:25.562Z,56.61
2022-10-05T14:03:51.952Z,56.64
2022-10-05T14:06:18.431Z,56.38
2022-10-05T14:08:44.792Z,56.22
2022-10-05T14:11:11.433Z,56.37
2022-10-05T14:13:38.108Z,56.22
2022-10-05T14:16:04.653Z,56.33
2022-10-05T14:18:31.178Z,56.35
2022-10-05T14:20:57.553Z,56.41
2022-10-05T14:23:23.947Z,56.33
2022-10-05T14:25:50.493Z,56.25
2022-10-05T14:28:16.921Z,56.26
2022-10-05T14:30:46.797Z,56.36
2022-10-05T14:33:16.066Z,56.18
2022-10-05T14:35:42.429Z,56.29
2022-10-05T14:38:08.903Z,56.24
2022-10-05T14:40:35.268Z,56.14
2022-10-05T14:43:01.632Z,56.18
2022-10-05T14:45:28.039Z,56.41
2022-10-05T14:47:54.466Z,56.08
2022-10-05T14:50:20.943Z,56.39
2022-10-05T14:52:51.552Z,56.31
2022-10-05T14:55:18.250Z,56.30
2022-10-05T14:57:44.634Z,56.29
2022-10-05T15:00:11.006Z,56.31
2022-10-05T15:02:37.456Z,56.28
2022-10-05T15:05:03.898Z,56.29
2022-10-05T15:07:30.288Z,56.55
2022-10-05T15:09:56.719Z,56.25
2022-10-05T15:12:23.165Z,56.42
2022-10-05T15:14:49.531Z,56.13
2022-10-05T15:17:15.892Z,56.21
2022-10-05T15:19:42.268Z,56.33
2022-10-05T15:22:08.650Z,56.31
2022-10-05T15:24:35.837Z,56.15
2022-10-05T15:27:04.286Z,56.29
2022-10-05T15:29:30.658Z,56.43
2022-10-05T15:31:57.047Z,56.35
2022-10-05T15:34:23.696Z,56.46
2022-10-05T15:36:50.124Z,56.36
2022-10-05T15:39:16.493Z,56.66
2022-10-05T15:41:42.866Z,56.73
2022-10-05T15:44:09.275Z,56.58
2022-10-05T15:46:35.713Z,56.50
2022-10-05T15:49:02.117Z,56.49
2022-10-05T15:51:28.499Z,56.25
2022-10-05T15:53:54.893Z,56.22
2022-10-05T15:56:21.270Z,56.16
2022-10-05T15:58:47.647Z,56.32
2022-10-05T16:01:14.083Z,56.25
2022-10-05T16:03:40.497Z,56.16
2022-10-05T16:06:06.865Z,56.22
2022-10-05T16:08:33.249Z,55.98
2022-10-05T16:10:59.639Z,55.98
2022-10-05T16:13:26.010Z,56.29
2022-10-05T16:15:52.379Z,56.61
2022-10-05T16:18:18.757Z,56.79
2022-10-05T16:20:45.125Z,56.96
2022-10-05T16:23:11.584Z,57.14
2022-10-05T16:25:37.955Z,57.25
2022-10-05T16:28:05.711Z,57.39
2022-10-05T16:30:32.449Z,57.15
2022-10-05T16:32:58.837Z,57.36
2022-10-05T16:35:25.213Z,57.49
2022-10-05T16:37:51.607Z,57.42
2022-10-05T16:40:17.991Z,57.45
2022-10-05T16:42:44.378Z,57.52
2022-10-05T16:45:10.791Z,57.55
2022-10-05T16:47:37.163Z,57.51
2022-10-05T16:50:03.658Z,57.58
2022-10-05T16:52:30.064Z,57.59
2022-10-05T16:54:56.439Z,57.39
2022-10-05T16:57:22.819Z,57.36
2022-10-05T16:59:49.200Z,57.30
2022-10-05T17:02:15.613Z,57.27
2022-10-05T17:04:42.047Z,57.33
2022-10-05T17:07:08.426Z,57.28
2022-10-05T17:09:34.796Z,57.46
2022-10-05T17:12:01.165Z,57.46
2022-10-05T17:14:27.533Z,57.30
2022-10-05T17:16:53.894Z,57.23
2022-10-05T17:19:20.270Z,57.13
2022-10-05T17:21:46.627Z,56.96
2022-10-05T17:24:12.994Z,57.00
2022-10-05T17:26:39.369Z,56.98
2022-10-05T17:29:05.733Z,56.90
2022-10-05T17:31:32.084Z,56.95
2022-10-05T17:33:58.455Z,56.79
2022-10-05T17:36:24.810Z,56.90
2022-10-05T17:38:51.173Z,56.79
2022-10-05T17:41:17.549Z,56.66
2022-10-05T17:43:43.904Z,56.84
2022-10-05T17:46:10.344Z,57.10
2022-10-05T17:48:36.756Z,57.23
2022-10-05T17:51:03.126Z,57.04
2022-10-05T17:53:29.482Z,57.02
2022-10-05T17:55:55.854Z,57.20
2022-10-05T17:58:22.447Z,57.37
2022-10-05T18:00:49.195Z,57.61
2022-10-05T18:03:15.621Z,57.59
2022-10-05T18:05:41.998Z,57.57
2022-10-05T18:08:08.370Z,57.63
2022-10-05T18:10:37.842Z,57.66
2022-10-05T18:13:06.822Z,57.67
2022-10-05T18:15:33.219Z,57.74
2022-10-05T18:17:59.590Z,57.71
2022-10-05T18:20:25.966Z,57.79
2022-10-05T18:22:52.446Z,57.91
2022-10-05T18:25:18.796Z,57.41
2022-10-05T18:27:45.172Z,57.64
2022-10-05T18:30:11.527Z,57.91
2022-10-05T18:32:37.883Z,57.87
2022-10-05T18:35:04.248Z,57.90
2022-10-05T18:37:30.608Z,58.05
2022-10-05T18:39:57.009Z,57.94
2022-10-05T18:42:23.373Z,57.96
2022-10-05T18:44:49.735Z,58.00
2022-10-05T18:47:16.104Z,58.12
2022-10-05T18:49:42.471Z,58.00
2022-10-05T18:52:08.831Z,57.99
2022-10-05T18:54:35.196Z,58.03
2022-10-05T18:57:01.563Z,57.95
2022-10-05T18:59:27.931Z,57.81
2022-10-05T19:01:54.397Z,57.88
2022-10-05T19:04:20.857Z,57.83
2022-10-05T19:06:47.235Z,57.88
2022-10-05T19:09:13.597Z,57.83
2022-10-05T19:11:39.966Z,57.87
2022-10-05T19:14:06.342Z,57.74
2022-10-05T19:16:32.714Z,57.91
2022-10-05T19:18:59.082Z,57.79
2022-10-05T19:21:25.457Z,57.90
2022-10-05T19:23:51.812Z,57.79
2022-10-05T19:26:18.268Z,57.82
2022-10-05T19:28:44.656Z,57.87
2022-10-05T19:31:11.070Z,57.85
2022-10-05T19:33:37.489Z,58.00
2022-10-05T19:36:03.853Z,57.90
2022-10-05T19:38:30.227Z,57.90
2022-10-05T19:40:56.593Z,57.89
2022-10-05T19:43:22.966Z,57.93
2022-10-05T19:45:49.358Z,57.76
2022-10-05T19:48:15.726Z,57.88
2022-10-05T19:50:42.080Z,58.00
2022-10-05T19:53:08.447Z,58.03
2022-10-05T19:55:34.823Z,57.90
2022-10-05T19:58:01.203Z,57.90
2022-10-05T20:00:27.584Z,57.87
2022-10-05T20:02:54.016Z,57.94
2022-10-05T20:05:20.387Z,57.91
2022-10-05T20:07:46.775Z,58.15
2022-10-05T20:10:13.175Z,58.06
2022-10-05T20:12:39.534Z,57.93
2022-10-05T20:15:05.907Z,57.83
2022-10-05T20:17:32.296Z,57.67
2022-10-05T20:19:58.669Z,57.71
2022-10-05T20:22:25.044Z,57.92
2022-10-05T20:24:51.403Z,57.79
2022-10-05T20:27:17.779Z,57.87
2022-10-05T20:29:44.176Z,57.93
2022-10-05T20:32:10.533Z,57.91
2022-10-05T20:34:36.907Z,57.72
2022-10-05T20:37:03.265Z,57.45
2022-10-05T20:39:29.637Z,57.34
2022-10-05T20:41:56.004Z,57.09
2022-10-05T20:44:22.374Z,56.95
2022-10-05T20:46:48.803Z,57.30
2022-10-05T20:49:15.203Z,57.16
2022-10-05T20:51:41.574Z,57.10
2022-10-05T20:54:07.953Z,57.28
2022-10-05T20:56:34.321Z,57.34
2022-10-05T20:59:00.694Z,57.30
2022-10-05T21:01:27.103Z,57.44
2022-10-05T21:03:53.503Z,57.46
2022-10-05T21:06:19.883Z,57.60
2022-10-05T21:08:46.240Z,57.91
2022-10-05T21:11:12.608Z,57.88
2022-10-05T21:13:38.974Z,57.76
2022-10-05T21:16:05.371Z,57.95
2022-10-05T21:18:32.072Z,57.81
2022-10-05T21:21:02.056Z,57.99
2022-10-05T21:23:28.776Z,58.00
2022-10-05T21:25:55.137Z,58.23
2022-10-05T21:28:21.557Z,58.24
2022-10-05T21:30:47.975Z,58.28
2022-10-05T21:33:14.346Z,58.16
2022-10-05T21:35:40.717Z,58.17
2022-10-05T21:38:07.081Z,58.10
2022-10-05T21:40:33.455Z,58.18
2022-10-05T21:42:59.833Z,58.22
2022-10-05T21:45:26.229Z,58.17
2022-10-05T21:47:52.618Z,58.26
2022-10-05T21:50:18.992Z,58.13
2022-10-05T21:52:45.351Z,58.15
2022-10-05T21:55:11.730Z,58.28
2022-10-05T21:57:38.099Z,58.35
2022-10-05T22:00:04.470Z,58.17
2022-10-05T22:02:30.843Z,58.37
2022-10-05T22:04:57.219Z,58.22
2022-10-05T22:07:23.580Z,58.05
2022-10-05T22:09:49.952Z,58.18
2022-10-05T22:12:16.325Z,58.15
2022-10-05T22:14:42.693Z,58.02
2022-10-05T22:17:09.070Z,58.17
2022-10-05T22:19:35.446Z,58.15
2022-10-05T22:22:01.826Z,58.12
2022-10-05T22:24:28.207Z,58.27
2022-10-05T22:26:54.580Z,58.13
2022-10-05T22:29:20.946Z,58.03
2022-10-05T22:31:47.400Z,58.03
2022-10-05T22:34:13.809Z,58.07
2022-10-05T22:36:40.175Z,58.17
2022-10-05T22:39:06.538Z,58.10
2022-10-05T22:41:32.913Z,58.04
2022-10-05T22:43:59.277Z,58.19
2022-10-05T22:46:25.692Z,58.27
2022-10-05T22:48:52.086Z,58.10
2022-10-05T22:51:18.461Z,58.24
2022-10-05T22:53:44.833Z,58.15
2022-10-05T22:56:11.201Z,58.14
2022-10-05T22:58:37.564Z,57.99
2022-10-05T23:01:04.032Z,58.10
2022-10-05T23:03:30.471Z,58.03
2022-10-05T23:05:56.845Z,58.15
2022-10-05T23:08:23.209Z,58.08
2022-10-05T23:10:49.574Z,57.88
2022-10-05T23:13:15.956Z,57.92
2022-10-05T23:15:42.335Z,58.09
2022-10-05T23:18:08.710Z,57.98
2022-10-05T23:20:35.080Z,58.02
2022-10-05T23:23:01.441Z,58.07
2022-10-05T23:25:27.812Z,57.96
2022-10-05T23:27:54.298Z,57.82
2022-10-05T23:30:20.734Z,57.89
2022-10-05T23:32:47.102Z,57.69
2022-10-05T23:35:13.456Z,57.71
2022-10-05T23:37:39.811Z,57.73
2022-10-05T23:40:06.171Z,57.65
2022-10-05T23:42:32.542Z,57.64
2022-10-05T23:44:58.916Z,57.64
2022-10-05T23:47:25.294Z,57.79
2022-10-05T23:49:51.675Z,57.75
2022-10-05T23:52:18.050Z,57.85
2022-10-05T23:54:44.407Z,57.58
2022-10-05T23:57:10.773Z,57.75
2022-10-05T23:59:37.140Z,57.87
